sensor_id;sensor_type;location;lat;lon;timestamp;temperature;humidity
16511;DHT22;8368;48.772;8.754;2023-02-01T00:01:39;2.60;99.90
16511;DHT22;8368;48.772;8.754;2023-02-01T00:04:04;2.60;99.90
16511;DHT22;8368;48.772;8.754;2023-02-01T00:06:30;2.60;99.90
16511;DHT22;8368;48.772;8.754;2023-02-01T00:08:56;2.60;99.90
16511;DHT22;8368;48.772;8.754;2023-02-01T00:11:22;2.60;99.90
16511;DHT22;8368;48.772;8.754;2023-02-01T00:13:48;2.60;99.90
16511;DHT22;8368;48.772;8.754;2023-02-01T00:16:19;2.60;99.90
16511;DHT22;8368;48.772;8.754;2023-02-01T00:18:46;2.60;99.90
16511;DHT22;8368;48.772;8.754;2023-02-01T00:21:13;2.60;99.90
16511;DHT22;8368;48.772;8.754;2023-02-01T00:23:39;2.60;99.90
16511;DHT22;8368;48.772;8.754;2023-02-01T00:26:06;2.70;99.90
16511;DHT22;8368;48.772;8.754;2023-02-01T00:28:33;2.70;99.90
16511;DHT22;8368;48.772;8.754;2023-02-01T00:31:03;2.70;99.90
16511;DHT22;8368;48.772;8.754;2023-02-01T00:33:30;2.80;99.90
16511;DHT22;8368;48.772;8.754;2023-02-01T00:35:57;2.80;99.90
16511;DHT22;8368;48.772;8.754;2023-02-01T00:38:23;2.80;99.90
16511;DHT22;8368;48.772;8.754;2023-02-01T00:40:48;2.80;99.90
16511;DHT22;8368;48.772;8.754;2023-02-01T00:43:14;2.80;99.90
16511;DHT22;8368;48.772;8.754;2023-02-01T00:45:39;2.80;99.90
16511;DHT22;8368;48.772;8.754;2023-02-01T00:48:05;2.70;99.90
16511;DHT22;8368;48.772;8.754;2023-02-01T00:50:30;2.70;99.90
16511;DHT22;8368;48.772;8.754;2023-02-01T00:52:56;2.70;99.90
16511;DHT22;8368;48.772;8.754;2023-02-01T00:55:21;2.70;99.90
16511;DHT22;8368;48.772;8.754;2023-02-01T00:57:47;2.70;99.90
16511;DHT22;8368;48.772;8.754;2023-02-01T01:00:13;2.70;99.90
16511;DHT22;8368;48.772;8.754;2023-02-01T01:02:38;2.60;99.90
16511;DHT22;8368;48.772;8.754;2023-02-01T01:05:04;2.60;99.90
16511;DHT22;8368;48.772;8.754;2023-02-01T01:07:29;2.60;99.90
16511;DHT22;8368;48.772;8.754;2023-02-01T01:09:55;2.50;99.90
16511;DHT22;8368;48.772;8.754;2023-02-01T01:12:20;2.60;99.90
16511;DHT22;8368;48.772;8.754;2023-02-01T01:14:46;2.50;99.90
16511;DHT22;8368;48.772;8.754;2023-02-01T01:17:11;2.50;99.90
16511;DHT22;8368;48.772;8.754;2023-02-01T01:19:37;2.50;99.90
16511;DHT22;8368;48.772;8.754;2023-02-01T01:22:02;2.50;99.90
16511;DHT22;8368;48.772;8.754;2023-02-01T01:24:28;2.50;99.90
16511;DHT22;8368;48.772;8.754;2023-02-01T01:26:54;2.50;99.90
16511;DHT22;8368;48.772;8.754;2023-02-01T01:29:19;2.50;99.90
16511;DHT22;8368;48.772;8.754;2023-02-01T01:31:45;2.50;99.90
16511;DHT22;8368;48.772;8.754;2023-02-01T01:34:10;2.50;99.90
16511;DHT22;8368;48.772;8.754;2023-02-01T01:36:36;2.50;99.90
16511;DHT22;8368;48.772;8.754;2023-02-01T01:39:01;2.50;99.90
16511;DHT22;8368;48.772;8.754;2023-02-01T01:41:31;2.50;99.90
16511;DHT22;8368;48.772;8.754;2023-02-01T01:44:02;2.50;99.90
16511;DHT22;8368;48.772;8.754;2023-02-01T01:46:34;2.50;99.90
16511;DHT22;8368;48.772;8.754;2023-02-01T01:51:30;2.50;99.90
16511;DHT22;8368;48.772;8.754;2023-02-01T01:54:02;2.50;99.90
16511;DHT22;8368;48.772;8.754;2023-02-01T01:56:30;2.50;99.90
16511;DHT22;8368;48.772;8.754;2023-02-01T01:58:58;2.50;99.90
16511;DHT22;8368;48.772;8.754;2023-02-01T02:01:24;2.50;99.90
16511;DHT22;8368;48.772;8.754;2023-02-01T02:03:50;2.50;99.90
16511;DHT22;8368;48.772;8.754;2023-02-01T02:06:47;2.60;99.90
16511;DHT22;8368;48.772;8.754;2023-02-01T02:09:15;2.60;99.90
16511;DHT22;8368;48.772;8.754;2023-02-01T02:11:41;2.60;99.90
16511;DHT22;8368;48.772;8.754;2023-02-01T02:14:09;2.60;99.90
16511;DHT22;8368;48.772;8.754;2023-02-01T02:25:29;2.50;99.90
16511;DHT22;8368;48.772;8.754;2023-02-01T02:31:08;2.50;99.90
16511;DHT22;8368;48.772;8.754;2023-02-01T02:36:23;2.60;99.90
16511;DHT22;8368;48.772;8.754;2023-02-01T02:39:07;2.60;99.90
16511;DHT22;8368;48.772;8.754;2023-02-01T02:45:05;2.60;99.90
16511;DHT22;8368;48.772;8.754;2023-02-01T02:48:18;2.60;99.90
16511;DHT22;8368;48.772;8.754;2023-02-01T02:51:11;2.70;99.90
16511;DHT22;8368;48.772;8.754;2023-02-01T02:56:53;2.70;99.90
16511;DHT22;8368;48.772;8.754;2023-02-01T02:59:40;2.60;99.90
16511;DHT22;8368;48.772;8.754;2023-02-01T03:02:27;2.60;99.90
16511;DHT22;8368;48.772;8.754;2023-02-01T03:05:12;2.60;99.90
16511;DHT22;8368;48.772;8.754;2023-02-01T03:10:24;2.70;99.90
16511;DHT22;8368;48.772;8.754;2023-02-01T03:12:53;2.60;99.90
16511;DHT22;8368;48.772;8.754;2023-02-01T03:15:49;2.70;99.90
16511;DHT22;8368;48.772;8.754;2023-02-01T03:18:28;2.80;99.90
16511;DHT22;8368;48.772;8.754;2023-02-01T03:20:56;3.00;99.90
16511;DHT22;8368;48.772;8.754;2023-02-01T03:23:28;3.00;99.90
16511;DHT22;8368;48.772;8.754;2023-02-01T03:25:56;3.00;99.90
16511;DHT22;8368;48.772;8.754;2023-02-01T03:28:23;3.10;99.90
16511;DHT22;8368;48.772;8.754;2023-02-01T03:30:51;3.10;99.90
16511;DHT22;8368;48.772;8.754;2023-02-01T03:33:23;3.20;99.90
16511;DHT22;8368;48.772;8.754;2023-02-01T03:38:58;3.30;99.90
16511;DHT22;8368;48.772;8.754;2023-02-01T03:46:49;3.40;99.90
16511;DHT22;8368;48.772;8.754;2023-02-01T03:49:29;3.40;99.90
16511;DHT22;8368;48.772;8.754;2023-02-01T03:51:57;3.40;99.90
16511;DHT22;8368;48.772;8.754;2023-02-01T03:54:24;3.50;99.90
16511;DHT22;8368;48.772;8.754;2023-02-01T03:56:51;3.50;99.90
16511;DHT22;8368;48.772;8.754;2023-02-01T03:59:19;3.50;99.90
16511;DHT22;8368;48.772;8.754;2023-02-01T04:01:44;3.50;99.90
16511;DHT22;8368;48.772;8.754;2023-02-01T04:04:10;3.50;99.90
16511;DHT22;8368;48.772;8.754;2023-02-01T04:06:36;3.50;99.90
16511;DHT22;8368;48.772;8.754;2023-02-01T04:09:02;3.50;99.90
16511;DHT22;8368;48.772;8.754;2023-02-01T04:11:28;3.60;99.90
16511;DHT22;8368;48.772;8.754;2023-02-01T04:13:54;3.60;99.90
16511;DHT22;8368;48.772;8.754;2023-02-01T04:16:19;3.60;99.90
16511;DHT22;8368;48.772;8.754;2023-02-01T04:18:45;3.60;99.90
16511;DHT22;8368;48.772;8.754;2023-02-01T04:21:10;3.60;99.90
16511;DHT22;8368;48.772;8.754;2023-02-01T04:23:36;3.60;99.90
16511;DHT22;8368;48.772;8.754;2023-02-01T04:26:03;3.60;99.90
16511;DHT22;8368;48.772;8.754;2023-02-01T04:28:29;3.60;99.90
16511;DHT22;8368;48.772;8.754;2023-02-01T04:30:55;3.60;99.90
16511;DHT22;8368;48.772;8.754;2023-02-01T04:33:20;3.60;99.90
16511;DHT22;8368;48.772;8.754;2023-02-01T04:35:47;3.60;99.90
16511;DHT22;8368;48.772;8.754;2023-02-01T04:38:12;3.60;99.90
16511;DHT22;8368;48.772;8.754;2023-02-01T04:40:38;3.60;99.90
16511;DHT22;8368;48.772;8.754;2023-02-01T04:43:04;3.60;99.90
16511;DHT22;8368;48.772;8.754;2023-02-01T04:45:30;3.60;99.90
16511;DHT22;8368;48.772;8.754;2023-02-01T04:47:55;3.60;99.90
16511;DHT22;8368;48.772;8.754;2023-02-01T04:50:21;3.60;99.90
16511;DHT22;8368;48.772;8.754;2023-02-01T04:52:47;3.60;99.90
16511;DHT22;8368;48.772;8.754;2023-02-01T04:55:12;3.60;99.90
16511;DHT22;8368;48.772;8.754;2023-02-01T04:57:41;3.60;99.90
16511;DHT22;8368;48.772;8.754;2023-02-01T05:00:09;3.60;99.90
16511;DHT22;8368;48.772;8.754;2023-02-01T05:02:35;3.60;99.90
16511;DHT22;8368;48.772;8.754;2023-02-01T05:05:01;3.60;99.90
16511;DHT22;8368;48.772;8.754;2023-02-01T05:07:27;3.60;99.90
16511;DHT22;8368;48.772;8.754;2023-02-01T05:09:52;3.60;99.90
16511;DHT22;8368;48.772;8.754;2023-02-01T05:12:18;3.60;99.90
16511;DHT22;8368;48.772;8.754;2023-02-01T05:15:02;3.60;99.90
16511;DHT22;8368;48.772;8.754;2023-02-01T05:17:27;3.60;99.90
16511;DHT22;8368;48.772;8.754;2023-02-01T05:19:53;3.70;99.90
16511;DHT22;8368;48.772;8.754;2023-02-01T05:22:18;3.70;99.90
16511;DHT22;8368;48.772;8.754;2023-02-01T05:24:44;3.80;99.90
16511;DHT22;8368;48.772;8.754;2023-02-01T05:27:09;3.70;99.90
16511;DHT22;8368;48.772;8.754;2023-02-01T05:29:35;3.70;99.90
16511;DHT22;8368;48.772;8.754;2023-02-01T05:32:00;3.70;99.90
16511;DHT22;8368;48.772;8.754;2023-02-01T05:34:26;3.70;99.90
16511;DHT22;8368;48.772;8.754;2023-02-01T05:36:52;3.60;99.90
16511;DHT22;8368;48.772;8.754;2023-02-01T05:39:17;3.60;99.90
16511;DHT22;8368;48.772;8.754;2023-02-01T05:41:43;3.60;99.90
16511;DHT22;8368;48.772;8.754;2023-02-01T05:44:10;3.60;99.90
16511;DHT22;8368;48.772;8.754;2023-02-01T05:46:36;3.50;99.90
16511;DHT22;8368;48.772;8.754;2023-02-01T05:49:02;3.60;99.90
16511;DHT22;8368;48.772;8.754;2023-02-01T05:51:27;3.50;99.90
16511;DHT22;8368;48.772;8.754;2023-02-01T05:53:53;3.50;99.90
16511;DHT22;8368;48.772;8.754;2023-02-01T05:56:18;3.50;99.90
16511;DHT22;8368;48.772;8.754;2023-02-01T05:58:44;3.50;99.90
16511;DHT22;8368;48.772;8.754;2023-02-01T06:01:09;3.50;99.90
16511;DHT22;8368;48.772;8.754;2023-02-01T06:03:35;3.50;99.90
16511;DHT22;8368;48.772;8.754;2023-02-01T06:06:01;3.50;99.90
16511;DHT22;8368;48.772;8.754;2023-02-01T06:08:26;3.50;99.90
16511;DHT22;8368;48.772;8.754;2023-02-01T06:11:03;3.50;99.90
16511;DHT22;8368;48.772;8.754;2023-02-01T06:13:29;3.50;99.90
16511;DHT22;8368;48.772;8.754;2023-02-01T06:18:25;3.50;99.90
16511;DHT22;8368;48.772;8.754;2023-02-01T06:20:54;3.40;99.90
16511;DHT22;8368;48.772;8.754;2023-02-01T06:23:20;3.50;99.90
16511;DHT22;8368;48.772;8.754;2023-02-01T06:25:50;3.40;99.90
16511;DHT22;8368;48.772;8.754;2023-02-01T06:28:16;3.50;99.90
16511;DHT22;8368;48.772;8.754;2023-02-01T06:30:42;3.50;99.90
16511;DHT22;8368;48.772;8.754;2023-02-01T06:33:12;3.50;99.90
16511;DHT22;8368;48.772;8.754;2023-02-01T06:35:40;3.50;99.90
16511;DHT22;8368;48.772;8.754;2023-02-01T06:38:06;3.40;99.90
16511;DHT22;8368;48.772;8.754;2023-02-01T06:40:32;3.50;99.90
16511;DHT22;8368;48.772;8.754;2023-02-01T06:42:57;3.50;99.90
16511;DHT22;8368;48.772;8.754;2023-02-01T06:45:23;3.50;99.90
16511;DHT22;8368;48.772;8.754;2023-02-01T06:47:49;3.50;99.90
16511;DHT22;8368;48.772;8.754;2023-02-01T06:50:15;3.50;99.90
16511;DHT22;8368;48.772;8.754;2023-02-01T06:52:40;3.60;99.90
16511;DHT22;8368;48.772;8.754;2023-02-01T06:55:06;3.50;99.90
16511;DHT22;8368;48.772;8.754;2023-02-01T06:57:32;3.50;99.90
16511;DHT22;8368;48.772;8.754;2023-02-01T06:59:59;3.50;99.90
16511;DHT22;8368;48.772;8.754;2023-02-01T07:02:25;3.50;99.90
16511;DHT22;8368;48.772;8.754;2023-02-01T07:04:50;3.50;99.90
16511;DHT22;8368;48.772;8.754;2023-02-01T07:07:16;3.50;99.90
16511;DHT22;8368;48.772;8.754;2023-02-01T07:09:42;3.40;99.90
16511;DHT22;8368;48.772;8.754;2023-02-01T07:12:07;3.50;99.90
16511;DHT22;8368;48.772;8.754;2023-02-01T07:14:33;3.50;99.90
16511;DHT22;8368;48.772;8.754;2023-02-01T07:16:58;3.50;99.90
16511;DHT22;8368;48.772;8.754;2023-02-01T07:19:24;3.60;99.90
16511;DHT22;8368;48.772;8.754;2023-02-01T07:21:49;3.60;99.90
16511;DHT22;8368;48.772;8.754;2023-02-01T07:24:15;3.60;99.90
16511;DHT22;8368;48.772;8.754;2023-02-01T07:26:40;3.60;99.90
16511;DHT22;8368;48.772;8.754;2023-02-01T07:29:06;3.70;99.90
16511;DHT22;8368;48.772;8.754;2023-02-01T07:31:31;3.70;99.90
16511;DHT22;8368;48.772;8.754;2023-02-01T07:33:57;3.80;99.90
16511;DHT22;8368;48.772;8.754;2023-02-01T07:36:23;3.80;99.90
16511;DHT22;8368;48.772;8.754;2023-02-01T07:38:49;3.90;99.90
16511;DHT22;8368;48.772;8.754;2023-02-01T07:41:16;3.90;99.90
16511;DHT22;8368;48.772;8.754;2023-02-01T07:43:42;3.90;99.90
16511;DHT22;8368;48.772;8.754;2023-02-01T07:46:09;3.90;99.90
16511;DHT22;8368;48.772;8.754;2023-02-01T07:48:35;4.00;99.90
16511;DHT22;8368;48.772;8.754;2023-02-01T07:51:12;4.00;99.90
16511;DHT22;8368;48.772;8.754;2023-02-01T07:53:39;4.00;99.90
16511;DHT22;8368;48.772;8.754;2023-02-01T07:56:17;4.00;99.90
16511;DHT22;8368;48.772;8.754;2023-02-01T07:58:43;4.00;99.90
16511;DHT22;8368;48.772;8.754;2023-02-01T08:01:16;4.00;99.90
16511;DHT22;8368;48.772;8.754;2023-02-01T08:03:46;4.00;99.90
16511;DHT22;8368;48.772;8.754;2023-02-01T08:06:12;4.00;99.90
16511;DHT22;8368;48.772;8.754;2023-02-01T08:08:37;4.10;99.90
16511;DHT22;8368;48.772;8.754;2023-02-01T08:11:05;4.10;99.90
16511;DHT22;8368;48.772;8.754;2023-02-01T08:13:31;4.10;99.90
16511;DHT22;8368;48.772;8.754;2023-02-01T08:16:01;4.10;99.90
16511;DHT22;8368;48.772;8.754;2023-02-01T08:18:27;4.10;99.90
16511;DHT22;8368;48.772;8.754;2023-02-01T08:20:52;4.10;99.90
16511;DHT22;8368;48.772;8.754;2023-02-01T08:23:19;4.10;99.90
16511;DHT22;8368;48.772;8.754;2023-02-01T08:25:44;4.10;99.90
16511;DHT22;8368;48.772;8.754;2023-02-01T08:28:10;4.10;99.90
16511;DHT22;8368;48.772;8.754;2023-02-01T08:30:37;4.10;99.90
16511;DHT22;8368;48.772;8.754;2023-02-01T08:33:04;4.10;99.90
16511;DHT22;8368;48.772;8.754;2023-02-01T08:35:31;4.20;99.90
16511;DHT22;8368;48.772;8.754;2023-02-01T08:37:57;4.20;99.90
16511;DHT22;8368;48.772;8.754;2023-02-01T08:40:22;4.30;99.90
16511;DHT22;8368;48.772;8.754;2023-02-01T08:42:48;4.30;99.90
16511;DHT22;8368;48.772;8.754;2023-02-01T08:47:45;4.30;99.90
16511;DHT22;8368;48.772;8.754;2023-02-01T08:50:12;4.30;99.90
16511;DHT22;8368;48.772;8.754;2023-02-01T08:52:38;4.30;99.90
16511;DHT22;8368;48.772;8.754;2023-02-01T08:55:05;4.30;99.90
16511;DHT22;8368;48.772;8.754;2023-02-01T08:57:31;4.30;99.90
16511;DHT22;8368;48.772;8.754;2023-02-01T08:59:57;4.30;99.90
16511;DHT22;8368;48.772;8.754;2023-02-01T09:02:22;4.30;99.90
16511;DHT22;8368;48.772;8.754;2023-02-01T09:04:48;4.20;99.90
16511;DHT22;8368;48.772;8.754;2023-02-01T09:07:13;4.20;99.90
16511;DHT22;8368;48.772;8.754;2023-02-01T09:09:39;4.20;99.90
16511;DHT22;8368;48.772;8.754;2023-02-01T09:12:05;4.20;99.90
16511;DHT22;8368;48.772;8.754;2023-02-01T09:14:30;4.20;99.90
16511;DHT22;8368;48.772;8.754;2023-02-01T09:16:56;4.20;99.90
16511;DHT22;8368;48.772;8.754;2023-02-01T09:19:22;4.10;99.90
16511;DHT22;8368;48.772;8.754;2023-02-01T09:21:47;4.20;99.90
16511;DHT22;8368;48.772;8.754;2023-02-01T09:24:13;4.20;99.90
16511;DHT22;8368;48.772;8.754;2023-02-01T09:26:38;4.20;99.90
16511;DHT22;8368;48.772;8.754;2023-02-01T09:29:06;4.10;99.90
16511;DHT22;8368;48.772;8.754;2023-02-01T09:31:38;4.10;99.90
16511;DHT22;8368;48.772;8.754;2023-02-01T09:34:05;4.20;99.90
16511;DHT22;8368;48.772;8.754;2023-02-01T09:36:31;4.30;99.90
16511;DHT22;8368;48.772;8.754;2023-02-01T09:38:58;4.30;99.90
16511;DHT22;8368;48.772;8.754;2023-02-01T09:41:46;4.30;99.90
16511;DHT22;8368;48.772;8.754;2023-02-01T09:44:49;4.50;99.90
16511;DHT22;8368;48.772;8.754;2023-02-01T09:47:21;4.50;99.90
16511;DHT22;8368;48.772;8.754;2023-02-01T09:49:52;4.60;99.90
16511;DHT22;8368;48.772;8.754;2023-02-01T09:52:34;4.60;99.90
16511;DHT22;8368;48.772;8.754;2023-02-01T09:55:16;4.50;99.90
16511;DHT22;8368;48.772;8.754;2023-02-01T09:58:02;4.50;99.90
16511;DHT22;8368;48.772;8.754;2023-02-01T10:00:31;4.50;99.90
16511;DHT22;8368;48.772;8.754;2023-02-01T10:02:59;4.40;99.90
16511;DHT22;8368;48.772;8.754;2023-02-01T10:52:45;4.60;99.90
16511;DHT22;8368;48.772;8.754;2023-02-01T10:55:46;4.70;99.90
16511;DHT22;8368;48.772;8.754;2023-02-01T11:01:06;4.80;99.90
16511;DHT22;8368;48.772;8.754;2023-02-01T11:03:55;4.80;99.90
16511;DHT22;8368;48.772;8.754;2023-02-01T11:06:31;4.90;99.90
16511;DHT22;8368;48.772;8.754;2023-02-01T11:09:01;5.00;99.90
16511;DHT22;8368;48.772;8.754;2023-02-01T11:14:26;4.90;99.90
16511;DHT22;8368;48.772;8.754;2023-02-01T11:17:01;4.80;99.90
16511;DHT22;8368;48.772;8.754;2023-02-01T11:19:27;4.90;99.90
16511;DHT22;8368;48.772;8.754;2023-02-01T11:21:58;4.90;99.90
16511;DHT22;8368;48.772;8.754;2023-02-01T11:24:25;4.90;99.90
16511;DHT22;8368;48.772;8.754;2023-02-01T11:26:55;5.00;99.90
16511;DHT22;8368;48.772;8.754;2023-02-01T11:29:23;5.00;99.90
16511;DHT22;8368;48.772;8.754;2023-02-01T11:31:57;5.00;99.90
16511;DHT22;8368;48.772;8.754;2023-02-01T11:34:37;4.90;99.90
16511;DHT22;8368;48.772;8.754;2023-02-01T11:37:03;4.90;99.90
16511;DHT22;8368;48.772;8.754;2023-02-01T11:39:31;4.90;99.90
16511;DHT22;8368;48.772;8.754;2023-02-01T11:42:04;4.80;99.90
16511;DHT22;8368;48.772;8.754;2023-02-01T11:47:20;4.80;99.90
16511;DHT22;8368;48.772;8.754;2023-02-01T11:49:47;4.90;99.90
16511;DHT22;8368;48.772;8.754;2023-02-01T12:00:59;5.00;99.90
16511;DHT22;8368;48.772;8.754;2023-02-01T12:06:55;5.00;99.90
16511;DHT22;8368;48.772;8.754;2023-02-01T12:09:42;4.80;99.90
16511;DHT22;8368;48.772;8.754;2023-02-01T12:12:43;4.70;99.90
16511;DHT22;8368;48.772;8.754;2023-02-01T12:15:16;4.70;99.90
16511;DHT22;8368;48.772;8.754;2023-02-01T12:18:01;4.60;99.90
16511;DHT22;8368;48.772;8.754;2023-02-01T12:20:56;4.70;99.90
16511;DHT22;8368;48.772;8.754;2023-02-01T12:23:49;4.80;99.90
16511;DHT22;8368;48.772;8.754;2023-02-01T12:29:18;4.80;99.90
16511;DHT22;8368;48.772;8.754;2023-02-01T12:32:17;4.70;99.90
16511;DHT22;8368;48.772;8.754;2023-02-01T12:35:13;4.50;99.90
16511;DHT22;8368;48.772;8.754;2023-02-01T12:37:57;4.50;99.90
16511;DHT22;8368;48.772;8.754;2023-02-01T12:40:41;4.50;99.90
16511;DHT22;8368;48.772;8.754;2023-02-01T12:45:56;4.60;99.90
16511;DHT22;8368;48.772;8.754;2023-02-01T12:48:32;4.60;99.90
16511;DHT22;8368;48.772;8.754;2023-02-01T12:51:04;4.70;99.90
16511;DHT22;8368;48.772;8.754;2023-02-01T12:56:18;4.60;99.90
16511;DHT22;8368;48.772;8.754;2023-02-01T13:01:21;4.60;99.90
16511;DHT22;8368;48.772;8.754;2023-02-01T13:03:59;4.50;99.90
16511;DHT22;8368;48.772;8.754;2023-02-01T13:06:36;4.60;99.90
16511;DHT22;8368;48.772;8.754;2023-02-01T13:09:24;4.60;99.90
16511;DHT22;8368;48.772;8.754;2023-02-01T13:11:53;4.70;99.90
16511;DHT22;8368;48.772;8.754;2023-02-01T13:14:46;4.70;99.90
16511;DHT22;8368;48.772;8.754;2023-02-01T13:19:50;4.70;99.90
16511;DHT22;8368;48.772;8.754;2023-02-01T13:22:39;4.60;99.90
16511;DHT22;8368;48.772;8.754;2023-02-01T13:25:18;4.50;99.90
16511;DHT22;8368;48.772;8.754;2023-02-01T13:27:46;4.50;99.90
16511;DHT22;8368;48.772;8.754;2023-02-01T13:30:19;4.50;99.90
16511;DHT22;8368;48.772;8.754;2023-02-01T13:42:15;4.70;99.90
16511;DHT22;8368;48.772;8.754;2023-02-01T13:44:56;4.80;99.90
16511;DHT22;8368;48.772;8.754;2023-02-01T13:47:46;4.80;99.90
16511;DHT22;8368;48.772;8.754;2023-02-01T13:50:35;4.80;99.90
16511;DHT22;8368;48.772;8.754;2023-02-01T13:53:16;4.70;99.90
16511;DHT22;8368;48.772;8.754;2023-02-01T13:55:50;4.70;99.90
16511;DHT22;8368;48.772;8.754;2023-02-01T13:58:31;4.70;99.90
16511;DHT22;8368;48.772;8.754;2023-02-01T14:03:54;4.80;99.90
16511;DHT22;8368;48.772;8.754;2023-02-01T14:11:56;5.10;99.90
16511;DHT22;8368;48.772;8.754;2023-02-01T14:19:25;5.00;99.90
16511;DHT22;8368;48.772;8.754;2023-02-01T14:21:56;5.00;99.90
16511;DHT22;8368;48.772;8.754;2023-02-01T14:24:28;4.80;99.90
16511;DHT22;8368;48.772;8.754;2023-02-01T14:26:56;4.80;99.90
16511;DHT22;8368;48.772;8.754;2023-02-01T14:29:33;4.70;99.90
16511;DHT22;8368;48.772;8.754;2023-02-01T14:53:06;4.60;99.90
16511;DHT22;8368;48.772;8.754;2023-02-01T14:55:40;4.50;99.90
16511;DHT22;8368;48.772;8.754;2023-02-01T14:58:34;4.50;99.90
16511;DHT22;8368;48.772;8.754;2023-02-01T15:03:57;4.40;99.90
16511;DHT22;8368;48.772;8.754;2023-02-01T15:09:36;4.30;99.90
16511;DHT22;8368;48.772;8.754;2023-02-01T15:12:16;4.30;99.90
16511;DHT22;8368;48.772;8.754;2023-02-01T15:15:18;4.40;99.90
16511;DHT22;8368;48.772;8.754;2023-02-01T15:17:52;4.40;99.90
16511;DHT22;8368;48.772;8.754;2023-02-01T15:20:21;4.50;99.90
16511;DHT22;8368;48.772;8.754;2023-02-01T15:22:58;4.50;99.90
16511;DHT22;8368;48.772;8.754;2023-02-01T15:25:29;4.50;99.90
16511;DHT22;8368;48.772;8.754;2023-02-01T15:27:56;4.60;99.90
16511;DHT22;8368;48.772;8.754;2023-02-01T15:30:27;4.60;99.90
16511;DHT22;8368;48.772;8.754;2023-02-01T15:35:50;4.50;99.90
16511;DHT22;8368;48.772;8.754;2023-02-01T15:46:44;4.40;99.90
16511;DHT22;8368;48.772;8.754;2023-02-01T15:49:25;4.30;99.90
16511;DHT22;8368;48.772;8.754;2023-02-01T15:51:52;4.30;99.90
16511;DHT22;8368;48.772;8.754;2023-02-01T15:54:39;4.30;99.90
16511;DHT22;8368;48.772;8.754;2023-02-01T15:57:07;4.30;99.90
16511;DHT22;8368;48.772;8.754;2023-02-01T15:59:43;4.20;99.90
16511;DHT22;8368;48.772;8.754;2023-02-01T16:02:57;4.20;99.90
16511;DHT22;8368;48.772;8.754;2023-02-01T16:07:59;4.20;99.90
16511;DHT22;8368;48.772;8.754;2023-02-01T16:10:30;4.10;99.90
16511;DHT22;8368;48.772;8.754;2023-02-01T16:12:56;4.10;99.90
16511;DHT22;8368;48.772;8.754;2023-02-01T16:15:26;4.10;99.90
16511;DHT22;8368;48.772;8.754;2023-02-01T16:17:51;4.00;99.90
16511;DHT22;8368;48.772;8.754;2023-02-01T16:20:17;4.10;99.90
16511;DHT22;8368;48.772;8.754;2023-02-01T16:22:43;4.00;99.90
16511;DHT22;8368;48.772;8.754;2023-02-01T16:25:08;4.00;99.90
16511;DHT22;8368;48.772;8.754;2023-02-01T16:27:34;4.00;99.90
16511;DHT22;8368;48.772;8.754;2023-02-01T16:29:59;3.90;99.90
16511;DHT22;8368;48.772;8.754;2023-02-01T16:32:25;3.90;99.90
16511;DHT22;8368;48.772;8.754;2023-02-01T16:34:51;3.90;99.90
16511;DHT22;8368;48.772;8.754;2023-02-01T16:37:23;4.00;99.90
16511;DHT22;8368;48.772;8.754;2023-02-01T16:39:48;4.10;99.90
16511;DHT22;8368;48.772;8.754;2023-02-01T16:42:15;4.10;99.90
16511;DHT22;8368;48.772;8.754;2023-02-01T16:44:41;4.10;99.90
16511;DHT22;8368;48.772;8.754;2023-02-01T16:47:19;4.10;99.90
16511;DHT22;8368;48.772;8.754;2023-02-01T16:49:46;4.10;99.90
16511;DHT22;8368;48.772;8.754;2023-02-01T16:52:19;4.10;99.90
16511;DHT22;8368;48.772;8.754;2023-02-01T16:54:46;4.10;99.90
16511;DHT22;8368;48.772;8.754;2023-02-01T16:57:14;4.10;99.90
16511;DHT22;8368;48.772;8.754;2023-02-01T16:59:40;4.10;99.90
16511;DHT22;8368;48.772;8.754;2023-02-01T17:02:09;4.10;99.90
16511;DHT22;8368;48.772;8.754;2023-02-01T17:04:35;4.10;99.90
16511;DHT22;8368;48.772;8.754;2023-02-01T17:07:01;4.00;99.90
16511;DHT22;8368;48.772;8.754;2023-02-01T17:09:35;4.00;99.90
16511;DHT22;8368;48.772;8.754;2023-02-01T17:12:01;4.10;99.90
16511;DHT22;8368;48.772;8.754;2023-02-01T17:14:26;4.00;99.90
16511;DHT22;8368;48.772;8.754;2023-02-01T17:16:52;4.10;99.90
16511;DHT22;8368;48.772;8.754;2023-02-01T17:19:21;4.20;99.90
16511;DHT22;8368;48.772;8.754;2023-02-01T17:21:52;4.30;99.90
16511;DHT22;8368;48.772;8.754;2023-02-01T17:24:22;4.30;99.90
16511;DHT22;8368;48.772;8.754;2023-02-01T17:26:48;4.20;99.90
16511;DHT22;8368;48.772;8.754;2023-02-01T17:29:15;4.20;99.90
16511;DHT22;8368;48.772;8.754;2023-02-01T17:31:43;4.30;99.90
16511;DHT22;8368;48.772;8.754;2023-02-01T17:34:11;4.20;99.90
16511;DHT22;8368;48.772;8.754;2023-02-01T17:36:37;4.10;99.90
16511;DHT22;8368;48.772;8.754;2023-02-01T17:39:04;4.10;99.90
16511;DHT22;8368;48.772;8.754;2023-02-01T17:41:30;4.00;99.90
16511;DHT22;8368;48.772;8.754;2023-02-01T17:43:55;4.00;99.90
16511;DHT22;8368;48.772;8.754;2023-02-01T17:46:21;4.00;99.90
16511;DHT22;8368;48.772;8.754;2023-02-01T17:48:54;4.00;99.90
16511;DHT22;8368;48.772;8.754;2023-02-01T17:51:22;4.00;99.90
16511;DHT22;8368;48.772;8.754;2023-02-01T17:53:49;4.00;99.90
16511;DHT22;8368;48.772;8.754;2023-02-01T17:56:17;4.00;99.90
16511;DHT22;8368;48.772;8.754;2023-02-01T17:58:44;4.00;99.90
16511;DHT22;8368;48.772;8.754;2023-02-01T18:01:18;4.00;99.90
16511;DHT22;8368;48.772;8.754;2023-02-01T18:03:43;4.10;99.90
16511;DHT22;8368;48.772;8.754;2023-02-01T18:06:13;4.10;99.90
16511;DHT22;8368;48.772;8.754;2023-02-01T18:08:39;4.10;99.90
16511;DHT22;8368;48.772;8.754;2023-02-01T18:11:07;4.20;99.90
16511;DHT22;8368;48.772;8.754;2023-02-01T18:13:34;4.10;99.90
16511;DHT22;8368;48.772;8.754;2023-02-01T18:15:59;4.10;99.90
16511;DHT22;8368;48.772;8.754;2023-02-01T18:18:26;4.10;99.90
16511;DHT22;8368;48.772;8.754;2023-02-01T18:20:53;4.10;99.90
16511;DHT22;8368;48.772;8.754;2023-02-01T18:23:21;4.10;99.90
16511;DHT22;8368;48.772;8.754;2023-02-01T18:25:48;4.10;99.90
16511;DHT22;8368;48.772;8.754;2023-02-01T18:28:14;4.10;99.90
16511;DHT22;8368;48.772;8.754;2023-02-01T18:30:41;4.00;99.90
16511;DHT22;8368;48.772;8.754;2023-02-01T18:33:16;4.00;99.90
16511;DHT22;8368;48.772;8.754;2023-02-01T18:35:43;4.00;99.90
16511;DHT22;8368;48.772;8.754;2023-02-01T18:38:09;4.00;99.90
16511;DHT22;8368;48.772;8.754;2023-02-01T18:40:52;4.10;99.90
16511;DHT22;8368;48.772;8.754;2023-02-01T18:43:19;4.10;99.90
16511;DHT22;8368;48.772;8.754;2023-02-01T18:45:46;4.20;99.90
16511;DHT22;8368;48.772;8.754;2023-02-01T18:48:13;4.30;99.90
16511;DHT22;8368;48.772;8.754;2023-02-01T18:50:42;4.30;99.90
16511;DHT22;8368;48.772;8.754;2023-02-01T18:53:16;4.30;99.90
16511;DHT22;8368;48.772;8.754;2023-02-01T18:55:45;4.30;99.90
16511;DHT22;8368;48.772;8.754;2023-02-01T18:58:12;4.40;99.90
16511;DHT22;8368;48.772;8.754;2023-02-01T19:00:38;4.40;99.90
16511;DHT22;8368;48.772;8.754;2023-02-01T19:03:04;4.40;99.90
16511;DHT22;8368;48.772;8.754;2023-02-01T19:05:30;4.40;99.90
16511;DHT22;8368;48.772;8.754;2023-02-01T19:07:56;4.40;99.90
16511;DHT22;8368;48.772;8.754;2023-02-01T19:10:23;4.40;99.90
16511;DHT22;8368;48.772;8.754;2023-02-01T19:12:50;4.40;99.90
16511;DHT22;8368;48.772;8.754;2023-02-01T19:15:15;4.40;99.90
16511;DHT22;8368;48.772;8.754;2023-02-01T19:17:43;4.50;99.90
16511;DHT22;8368;48.772;8.754;2023-02-01T19:20:11;4.50;99.90
16511;DHT22;8368;48.772;8.754;2023-02-01T19:22:37;4.50;99.90
16511;DHT22;8368;48.772;8.754;2023-02-01T19:25:03;4.50;99.90